createdAt,value
2023-01-10T00:01:49.628Z,9.95
2023-01-10T00:04:16.148Z,11.00
2023-01-10T00:06:42.602Z,13.68
2023-01-10T00:09:10.402Z,10.25
2023-01-10T00:11:55.441Z,10.95
2023-01-10T00:14:21.835Z,12.30
2023-01-10T00:16:48.212Z,14.15
2023-01-10T00:19:14.685Z,14.35
2023-01-10T00:21:41.155Z,10.70
2023-01-10T00:24:17.250Z,13.43
2023-01-10T00:26:45.599Z,13.73
2023-01-10T00:29:12.213Z,12.40
2023-01-10T00:31:38.635Z,11.55
2023-01-10T00:34:05.086Z,15.65
2023-01-10T00:36:31.448Z,15.07
2023-01-10T00:38:57.836Z,14.48
2023-01-10T00:41:42.641Z,14.25
2023-01-10T00:44:09.104Z,15.60
2023-01-10T00:46:35.690Z,16.50
2023-01-10T00:49:05.355Z,22.10
2023-01-10T00:51:31.776Z,14.35
2023-01-10T00:53:58.151Z,12.63
2023-01-10T00:56:24.551Z,12.70
2023-01-10T00:58:50.945Z,15.25
2023-01-10T01:01:17.504Z,11.10
2023-01-10T01:03:43.975Z,11.27
2023-01-10T01:06:10.388Z,12.65
2023-01-10T01:08:36.807Z,13.10
2023-01-10T01:11:03.301Z,12.57
2023-01-10T01:13:29.788Z,11.90
2023-01-10T01:16:00.238Z,11.77
2023-01-10T01:18:27.402Z,15.82
2023-01-10T01:20:56.838Z,14.93
2023-01-10T01:23:23.944Z,16.23
2023-01-10T01:25:52.596Z,12.45
2023-01-10T01:28:19.533Z,12.80
2023-01-10T01:30:46.269Z,14.55
2023-01-10T01:33:13.146Z,14.93
2023-01-10T01:35:44.057Z,14.80
2023-01-10T01:38:11.082Z,12.07
2023-01-10T01:40:41.514Z,15.52
2023-01-10T01:43:26.822Z,15.95
2023-01-10T01:45:54.223Z,18.15
2023-01-10T01:48:42.691Z,14.85
2023-01-10T01:51:19.787Z,19.08
2023-01-10T01:53:52.519Z,15.18
2023-01-10T01:56:23.436Z,15.88
2023-01-10T01:59:28.033Z,19.58
2023-01-10T02:02:01.908Z,19.25
2023-01-10T02:04:38.115Z,15.05
2023-01-10T02:07:04.748Z,19.98
2023-01-10T02:09:37.683Z,17.92
2023-01-10T02:12:04.508Z,20.02
2023-01-10T02:14:33.258Z,17.08
2023-01-10T02:16:59.697Z,19.10
2023-01-10T02:19:32.260Z,15.90
2023-01-10T02:22:24.219Z,21.48
2023-01-10T02:27:58.307Z,19.35
2023-01-10T02:30:40.239Z,19.40
2023-01-10T02:33:10.736Z,17.63
2023-01-10T02:39:09.701Z,19.50
2023-01-10T02:41:59.537Z,17.90
2023-01-10T02:44:25.906Z,18.92
2023-01-10T02:46:52.404Z,15.27
2023-01-10T02:49:19.468Z,15.02
2023-01-10T02:51:45.847Z,17.40
2023-01-10T02:54:23.040Z,16.33
2023-01-10T02:57:26.518Z,17.15
2023-01-10T03:00:17.396Z,13.15
2023-01-10T03:02:58.190Z,13.98
2023-01-10T03:05:59.836Z,14.50
2023-01-10T03:08:43.808Z,12.77
2023-01-10T03:11:11.205Z,11.15
2023-01-10T03:13:48.508Z,12.27
2023-01-10T03:16:23.452Z,8.57
2023-01-10T03:19:01.579Z,10.70
2023-01-10T03:21:30.529Z,8.05
2023-01-10T03:24:03.630Z,5.55
2023-01-10T03:26:45.748Z,10.55
2023-01-10T03:29:16.346Z,7.13
2023-01-10T03:31:52.196Z,7.80
2023-01-10T03:34:18.716Z,8.40
2023-01-10T03:36:58.265Z,10.35
2023-01-10T03:39:49.205Z,10.20
2023-01-10T03:42:59.943Z,12.83
2023-01-10T03:45:33.595Z,12.43
2023-01-10T03:48:03.403Z,14.80
2023-01-10T03:50:31.421Z,11.57
2023-01-10T03:52:58.452Z,10.27
2023-01-10T03:55:28.916Z,12.32
2023-01-10T03:57:55.465Z,11.43
2023-01-10T04:00:22.107Z,14.27
2023-01-10T04:02:48.531Z,13.20
2023-01-10T04:05:14.989Z,13.48
2023-01-10T04:07:41.472Z,13.98
2023-01-10T04:10:09.042Z,12.27
2023-01-10T04:12:35.428Z,12.45
2023-01-10T04:15:02.742Z,13.32
2023-01-10T04:17:29.197Z,14.38
2023-01-10T04:19:55.659Z,10.77
2023-01-10T04:22:22.052Z,13.48
2023-01-10T04:24:51.120Z,12.50
2023-01-10T04:27:18.568Z,14.45
2023-01-10T04:29:44.995Z,16.75
2023-01-10T04:32:11.539Z,14.90
2023-01-10T04:34:37.976Z,12.95
2023-01-10T04:37:04.372Z,15.55
2023-01-10T04:39:30.796Z,17.73
2023-01-10T04:41:57.232Z,17.23
2023-01-10T04:44:23.664Z,17.35
2023-01-10T04:46:50.120Z,22.33
2023-01-10T04:49:16.538Z,16.17
2023-01-10T04:51:42.965Z,22.20
2023-01-10T04:54:09.357Z,14.95
2023-01-10T04:56:35.796Z,17.75
2023-01-10T04:59:02.455Z,19.33
2023-01-10T05:01:29.085Z,28.08
2023-01-10T05:03:56.146Z,16.77
2023-01-10T05:06:24.272Z,19.80
2023-01-10T05:08:50.952Z,19.13
2023-01-10T05:11:17.386Z,18.25
2023-01-10T05:13:44.003Z,15.75
2023-01-10T05:16:10.516Z,22.67
2023-01-10T05:18:37.115Z,16.65
2023-01-10T05:21:06.301Z,18.85
2023-01-10T05:23:33.011Z,27.08
2023-01-10T05:26:09.643Z,22.20
2023-01-10T05:28:36.758Z,19.90
2023-01-10T05:31:03.172Z,13.45
2023-01-10T05:33:29.605Z,22.17
2023-01-10T05:35:56.051Z,25.33
2023-01-10T05:38:22.426Z,19.88
2023-01-10T05:40:48.838Z,19.88
2023-01-10T05:43:15.228Z,19.48
2023-01-10T05:45:42.669Z,26.00
2023-01-10T05:48:09.103Z,21.67
2023-01-10T05:50:35.490Z,24.83
2023-01-10T05:53:05.685Z,21.30
2023-01-10T05:55:32.307Z,21.67
2023-01-10T05:57:59.005Z,17.85
2023-01-10T06:00:26.483Z,23.08
2023-01-10T06:02:56.792Z,28.30
2023-01-10T06:05:24.565Z,21.77
2023-01-10T06:07:51.075Z,23.77
2023-01-10T06:10:18.188Z,23.08
2023-01-10T06:12:44.861Z,25.83
2023-01-10T06:15:11.439Z,19.98
2023-01-10T06:17:37.862Z,21.10
2023-01-10T06:20:04.853Z,23.33
2023-01-10T06:22:31.274Z,18.75
2023-01-10T06:24:57.740Z,23.85
2023-01-10T06:27:24.199Z,26.38
2023-01-10T06:29:50.596Z,19.38
2023-01-10T06:32:17.149Z,25.67
2023-01-10T06:34:43.542Z,25.45
2023-01-10T06:37:09.933Z,21.13
2023-01-10T06:39:36.383Z,23.33
2023-01-10T06:42:02.888Z,29.00
2023-01-10T06:44:29.261Z,19.45
2023-01-10T06:46:55.649Z,25.02
2023-01-10T06:49:22.080Z,18.90
2023-01-10T06:51:48.455Z,21.38
2023-01-10T06:54:14.999Z,18.17
2023-01-10T06:56:41.447Z,17.27
2023-01-10T06:59:08.813Z,25.20
2023-01-10T07:01:35.384Z,18.40
2023-01-10T07:04:01.941Z,23.85
2023-01-10T07:06:28.451Z,20.52
2023-01-10T07:08:54.916Z,20.02
2023-01-10T07:11:21.409Z,19.85
2023-01-10T07:13:47.919Z,22.10
2023-01-10T07:16:16.240Z,19.77
2023-01-10T07:18:43.377Z,22.42
2023-01-10T07:21:10.330Z,20.23
2023-01-10T07:23:38.071Z,25.70
2023-01-10T07:26:07.099Z,22.00
2023-01-10T07:28:36.840Z,18.90
2023-01-10T07:31:06.050Z,22.58
2023-01-10T07:33:32.552Z,25.85
2023-01-10T07:36:01.016Z,20.45
2023-01-10T07:38:27.684Z,27.85
2023-01-10T07:40:54.167Z,26.95
2023-01-10T07:43:20.648Z,23.02
2023-01-10T07:45:47.024Z,19.40
2023-01-10T07:48:13.490Z,25.75
2023-01-10T07:50:40.257Z,23.98
2023-01-10T07:53:08.356Z,25.80
2023-01-10T07:55:38.835Z,18.88
2023-01-10T07:58:07.843Z,27.17
2023-01-10T08:00:35.068Z,23.98
2023-01-10T08:03:01.782Z,23.20
2023-01-10T08:05:28.359Z,26.33
2023-01-10T08:07:59.785Z,20.75
2023-01-10T08:10:27.210Z,25.13
2023-01-10T08:12:53.837Z,29.25
2023-01-10T08:15:20.547Z,20.60
2023-01-10T08:17:46.990Z,22.90
2023-01-10T08:20:13.549Z,27.20
2023-01-10T08:22:40.028Z,24.88
2023-01-10T08:25:06.809Z,26.15
2023-01-10T08:27:33.359Z,16.88
2023-01-10T08:29:59.826Z,21.48
2023-01-10T08:32:26.352Z,24.23
2023-01-10T08:34:52.775Z,23.60
2023-01-10T08:37:19.169Z,26.92
2023-01-10T08:39:45.632Z,23.05
2023-01-10T08:42:12.051Z,21.02
2023-01-10T08:44:38.542Z,25.25
2023-01-10T08:47:04.980Z,23.70
2023-01-10T08:49:31.386Z,23.67
2023-01-10T08:51:57.820Z,17.58
2023-01-10T08:54:24.401Z,29.50
2023-01-10T08:56:50.811Z,19.58
2023-01-10T08:59:17.241Z,23.63
2023-01-10T09:01:43.751Z,21.70
2023-01-10T09:04:10.276Z,30.75
2023-01-10T09:06:37.638Z,24.30
2023-01-10T09:09:04.861Z,21.58
2023-01-10T09:11:31.454Z,20.65
2023-01-10T09:13:57.906Z,25.00
2023-01-10T09:16:24.450Z,23.08
2023-01-10T09:18:50.891Z,21.35
2023-01-10T09:21:17.399Z,18.60
2023-01-10T09:23:44.343Z,24.73
2023-01-10T09:26:10.849Z,21.70
2023-01-10T09:28:37.283Z,19.98
2023-01-10T09:31:05.086Z,18.70
2023-01-10T09:33:45.195Z,16.83
2023-01-10T09:36:15.293Z,19.83
2023-01-10T09:38:41.870Z,17.13
2023-01-10T09:41:17.324Z,26.85
2023-01-10T09:44:01.112Z,21.10
2023-01-10T09:46:42.656Z,19.17
2023-01-10T09:49:27.513Z,20.98
2023-01-10T09:51:59.088Z,28.20
2023-01-10T09:54:29.755Z,17.48
2023-01-10T09:56:58.120Z,19.50
2023-01-10T09:59:31.059Z,20.65
2023-01-10T10:02:14.404Z,20.48
2023-01-10T10:04:41.541Z,19.90
2023-01-10T10:07:15.384Z,20.20
2023-01-10T10:09:43.611Z,14.50
2023-01-10T10:12:19.197Z,18.52
2023-01-10T10:14:45.558Z,17.83
2023-01-10T10:17:18.007Z,18.90
2023-01-10T10:20:15.762Z,19.92
2023-01-10T10:23:17.399Z,17.67
2023-01-10T10:26:01.493Z,17.67
2023-01-10T10:28:56.295Z,22.40
2023-01-10T10:31:44.402Z,21.38
2023-01-10T10:34:28.251Z,19.48
2023-01-10T10:37:00.687Z,24.60
2023-01-10T10:39:36.524Z,22.92
2023-01-10T10:42:03.798Z,18.90
2023-01-10T10:44:45.393Z,16.08
2023-01-10T10:47:20.620Z,22.30
2023-01-10T10:50:04.378Z,15.50
2023-01-10T10:52:34.816Z,15.45
2023-01-10T10:55:04.864Z,20.10
2023-01-10T10:57:33.672Z,15.90
2023-01-10T11:00:02.664Z,20.67
2023-01-10T11:02:40.187Z,20.33
2023-01-10T11:05:14.531Z,17.85
2023-01-10T11:07:40.963Z,21.20
2023-01-10T11:10:34.876Z,22.20
2023-01-10T11:13:05.709Z,23.23
2023-01-10T11:15:41.690Z,22.45
2023-01-10T11:18:14.642Z,18.88
2023-01-10T11:21:01.784Z,26.20
2023-01-10T11:23:34.700Z,17.60
2023-01-10T11:26:01.444Z,23.60
2023-01-10T11:28:31.319Z,21.88
2023-01-10T11:30:59.077Z,15.60
2023-01-10T11:33:35.235Z,14.65
2023-01-10T11:36:03.485Z,19.80
2023-01-10T11:38:31.279Z,20.40
2023-01-10T11:41:00.886Z,23.45
2023-01-10T11:43:38.247Z,21.13
2023-01-10T11:46:21.732Z,19.17
2023-01-10T11:49:08.141Z,29.48
2023-01-10T11:51:43.882Z,25.40
2023-01-10T11:54:15.591Z,17.15
2023-01-10T11:59:14.335Z,19.80
2023-01-10T12:02:04.980Z,16.83
2023-01-10T12:04:39.549Z,22.23
2023-01-10T12:07:10.776Z,21.67
2023-01-10T12:09:44.312Z,21.52
2023-01-10T12:12:21.452Z,17.55
2023-01-10T12:14:48.672Z,22.38
2023-01-10T12:17:35.640Z,18.40
2023-01-10T12:20:04.456Z,18.00
2023-01-10T12:22:43.140Z,18.38
2023-01-10T12:25:17.189Z,16.88
2023-01-10T12:27:44.893Z,21.15
2023-01-10T12:30:17.869Z,27.25
2023-01-10T12:32:53.263Z,22.48
2023-01-10T12:35:24.943Z,24.50
2023-01-10T12:40:45.135Z,16.08
2023-01-10T12:43:42.552Z,26.42
2023-01-10T12:46:33.861Z,20.30
2023-01-10T12:49:17.083Z,17.25
2023-01-10T12:51:45.940Z,25.63
2023-01-10T12:54:20.827Z,25.42
2023-01-10T12:56:48.699Z,27.15
2023-01-10T12:59:36.481Z,19.42
2023-01-10T13:02:10.453Z,21.45
2023-01-10T13:04:38.669Z,18.88
2023-01-10T13:07:05.982Z,24.65
2023-01-10T13:09:33.440Z,25.63
2023-01-10T13:12:08.715Z,27.73
2023-01-10T13:14:42.090Z,18.90
2023-01-10T13:17:32.790Z,18.27
2023-01-10T13:20:24.677Z,15.00
2023-01-10T13:25:31.196Z,29.00
2023-01-10T13:27:58.861Z,21.27
2023-01-10T13:30:34.976Z,11.75
2023-01-10T13:33:07.658Z,20.25
2023-01-10T13:35:43.682Z,23.05
2023-01-10T13:38:27.075Z,19.95
2023-01-10T13:41:05.955Z,16.17
2023-01-10T13:43:36.643Z,16.15
2023-01-10T13:46:15.354Z,13.03
2023-01-10T13:48:51.618Z,19.35
2023-01-10T13:51:19.213Z,17.27
2023-01-10T13:53:57.224Z,16.77
2023-01-10T13:56:36.987Z,15.38
2023-01-10T13:59:28.653Z,24.77
2023-01-10T14:02:17.302Z,15.32
2023-01-10T14:04:54.714Z,14.88
2023-01-10T14:07:32.911Z,19.52
2023-01-10T14:10:27.271Z,16.70
2023-01-10T14:13:09.334Z,15.13
2023-01-10T14:15:41.350Z,17.48
2023-01-10T14:18:21.456Z,18.08
2023-01-10T14:20:58.536Z,22.23
2023-01-10T14:23:32.173Z,17.30
2023-01-10T14:25:59.035Z,19.85
2023-01-10T14:28:28.881Z,22.55
2023-01-10T14:31:01.649Z,25.95
2023-01-10T14:33:29.007Z,18.80
2023-01-10T14:36:01.538Z,15.20
2023-01-10T14:38:31.337Z,19.30
2023-01-10T14:41:04.999Z,19.52
2023-01-10T14:44:01.145Z,19.98
2023-01-10T14:46:48.892Z,23.33
2023-01-10T14:49:26.245Z,15.30
2023-01-10T14:52:00.642Z,17.58
2023-01-10T14:54:29.408Z,16.60
2023-01-10T14:56:57.392Z,22.95
2023-01-10T14:59:26.733Z,16.30
2023-01-10T15:02:02.267Z,16.00
2023-01-10T15:04:33.542Z,12.30
2023-01-10T15:07:03.417Z,27.20
2023-01-10T15:09:32.144Z,15.05
2023-01-10T15:12:02.165Z,20.08
2023-01-10T15:14:30.077Z,23.40
2023-01-10T15:17:02.130Z,19.42
2023-01-10T15:19:33.589Z,23.23
2023-01-10T15:22:00.342Z,18.77
2023-01-10T15:24:37.685Z,24.42
2023-01-10T15:27:13.064Z,18.88
2023-01-10T15:29:44.862Z,13.70
2023-01-10T15:32:35.624Z,15.80
2023-01-10T15:35:03.122Z,15.40
2023-01-10T15:37:35.212Z,17.70
2023-01-10T15:40:04.983Z,19.70
2023-01-10T15:42:31.745Z,18.08
2023-01-10T15:45:22.008Z,20.20
2023-01-10T15:47:48.417Z,13.18
2023-01-10T15:50:29.516Z,17.30
2023-01-10T15:53:00.821Z,22.35
2023-01-10T15:55:51.234Z,16.67
2023-01-10T15:58:35.055Z,14.70
2023-01-10T16:01:05.322Z,20.20
2023-01-10T16:03:35.456Z,22.05
2023-01-10T16:06:08.939Z,18.55
2023-01-10T16:08:38.087Z,14.80
2023-01-10T16:11:08.033Z,31.83
2023-01-10T16:13:37.602Z,15.52
2023-01-10T16:16:15.374Z,21.75
2023-01-10T16:18:42.011Z,20.52
2023-01-10T16:21:11.279Z,16.67
2023-01-10T16:23:38.233Z,18.08
2023-01-10T16:26:06.504Z,18.42
2023-01-10T16:28:36.232Z,18.63
2023-01-10T16:31:06.376Z,15.77
2023-01-10T16:33:33.536Z,13.60
2023-01-10T16:36:00.279Z,13.85
2023-01-10T16:38:28.592Z,14.10
2023-01-10T16:41:00.923Z,14.70
2023-01-10T16:43:29.312Z,20.52
2023-01-10T16:46:01.461Z,20.52
2023-01-10T16:48:31.595Z,11.75
2023-01-10T16:51:18.450Z,16.05
2023-01-10T16:53:45.976Z,21.88
2023-01-10T16:56:14.976Z,27.98
2023-01-10T16:58:41.956Z,19.77
2023-01-10T17:01:13.910Z,22.52
2023-01-10T17:03:40.720Z,13.40
2023-01-10T17:06:07.454Z,26.73
2023-01-10T17:08:33.899Z,23.08
2023-01-10T17:11:05.743Z,15.63
2023-01-10T17:13:36.278Z,20.15
2023-01-10T17:16:02.952Z,14.77
2023-01-10T17:18:29.501Z,23.13
2023-01-10T17:20:57.549Z,13.13
2023-01-10T17:23:25.450Z,18.00
2023-01-10T17:26:02.235Z,14.82
2023-01-10T17:28:29.529Z,11.63
2023-01-10T17:30:57.228Z,15.48
2023-01-10T17:33:24.866Z,4.43
2023-01-10T17:35:54.757Z,10.07
2023-01-10T17:38:21.560Z,5.65
2023-01-10T17:40:49.117Z,9.38
2023-01-10T17:43:16.993Z,9.48
2023-01-10T17:45:45.730Z,12.75
2023-01-10T17:48:14.823Z,10.55
2023-01-10T17:50:42.335Z,13.80
2023-01-10T17:53:08.887Z,9.27
2023-01-10T17:55:35.683Z,9.13
2023-01-10T17:58:05.142Z,11.52
2023-01-10T18:00:32.194Z,13.65
2023-01-10T18:02:58.757Z,18.15
2023-01-10T18:05:25.396Z,17.10
2023-01-10T18:07:51.896Z,16.15
2023-01-10T18:10:18.442Z,16.73
2023-01-10T18:12:45.387Z,11.88
2023-01-10T18:15:11.816Z,19.38
2023-01-10T18:17:38.870Z,13.75
2023-01-10T18:20:06.001Z,13.57
2023-01-10T18:22:51.326Z,22.05
2023-01-10T18:25:17.901Z,19.67
2023-01-10T18:27:50.031Z,17.92
2023-01-10T18:30:21.648Z,19.65
2023-01-10T18:35:22.208Z,13.82
2023-01-10T18:37:48.797Z,18.95
2023-01-10T18:40:15.282Z,14.70
2023-01-10T18:42:41.921Z,17.63
2023-01-10T18:45:08.793Z,15.55
2023-01-10T18:47:35.225Z,14.00
2023-01-10T18:50:01.833Z,14.32
2023-01-10T18:52:28.401Z,12.70
2023-01-10T18:54:54.918Z,14.40
2023-01-10T18:57:21.461Z,12.98
2023-01-10T18:59:47.875Z,12.45
2023-01-10T19:02:15.186Z,13.98
2023-01-10T19:04:41.801Z,13.38
2023-01-10T19:07:08.584Z,20.48
2023-01-10T19:09:35.287Z,14.40
2023-01-10T19:12:01.776Z,7.10
2023-01-10T19:14:28.278Z,10.45
2023-01-10T19:16:54.753Z,7.95
2023-01-10T19:19:21.232Z,11.40
2023-01-10T19:21:47.682Z,12.95
2023-01-10T19:24:27.516Z,9.32
2023-01-10T19:26:54.355Z,11.75
2023-01-10T19:29:20.915Z,13.80
2023-01-10T19:31:48.355Z,9.95
2023-01-10T19:34:14.946Z,6.18
2023-01-10T19:36:44.620Z,11.18
2023-01-10T19:39:12.133Z,10.88
2023-01-10T19:41:39.108Z,11.63
2023-01-10T19:44:08.875Z,12.52
2023-01-10T19:46:37.205Z,12.40
2023-01-10T19:49:08.145Z,13.82
2023-01-10T19:51:36.670Z,13.32
2023-01-10T19:54:04.302Z,13.23
2023-01-10T19:56:31.110Z,9.43
2023-01-10T19:58:57.717Z,16.40
2023-01-10T20:01:27.005Z,14.10
2023-01-10T20:03:56.452Z,14.23
2023-01-10T20:06:26.487Z,10.73
2023-01-10T20:08:56.508Z,13.00
2023-01-10T20:11:25.325Z,11.13
2023-01-10T20:13:52.268Z,13.55
2023-01-10T20:16:21.252Z,15.13
2023-01-10T20:18:48.968Z,11.38
2023-01-10T20:21:17.879Z,16.13
2023-01-10T20:23:44.809Z,12.02
2023-01-10T20:26:14.591Z,13.70
2023-01-10T20:28:42.874Z,13.50
2023-01-10T20:31:18.144Z,11.25
2023-01-10T20:33:44.805Z,9.27
2023-01-10T20:36:14.181Z,12.93
2023-01-10T20:38:41.026Z,13.73
2023-01-10T20:41:16.003Z,14.82
2023-01-10T20:43:43.297Z,17.67
2023-01-10T20:46:12.929Z,12.95
2023-01-10T20:48:40.172Z,12.13
2023-01-10T20:51:08.355Z,11.15
2023-01-10T20:53:34.785Z,12.40
2023-01-10T20:56:10.755Z,40.60
2023-01-10T20:58:37.885Z,13.18
2023-01-10T21:01:04.393Z,12.40
2023-01-10T21:03:30.877Z,8.90
2023-01-10T21:05:58.502Z,17.83
2023-01-10T21:08:25.664Z,18.85
2023-01-10T21:10:52.733Z,10.75
2023-01-10T21:13:19.561Z,19.42
2023-01-10T21:15:47.242Z,7.68
2023-01-10T21:18:15.922Z,9.93
2023-01-10T21:20:47.200Z,9.75
2023-01-10T21:23:14.500Z,7.63
2023-01-10T21:25:41.157Z,19.10
2023-01-10T21:28:10.393Z,12.07
2023-01-10T21:30:38.247Z,13.10
2023-01-10T21:33:05.521Z,14.90
2023-01-10T21:35:33.080Z,13.35
2023-01-10T21:38:00.476Z,9.38
2023-01-10T21:40:28.027Z,8.20
2023-01-10T21:42:55.012Z,15.57
2023-01-10T21:45:22.358Z,12.02
2023-01-10T21:47:49.133Z,10.85
2023-01-10T21:50:16.198Z,8.70
2023-01-10T21:52:43.602Z,14.15
2023-01-10T21:55:13.024Z,11.27
2023-01-10T21:57:39.734Z,14.23
2023-01-10T22:00:06.867Z,14.77
2023-01-10T22:02:34.919Z,10.90
2023-01-10T22:05:01.652Z,14.63
2023-01-10T22:07:28.913Z,10.57
2023-01-10T22:09:55.590Z,6.72
2023-01-10T22:12:24.110Z,12.52
2023-01-10T22:14:50.648Z,11.38
2023-01-10T22:17:17.277Z,6.60
2023-01-10T22:19:43.834Z,9.50
2023-01-10T22:22:10.916Z,10.82
2023-01-10T22:24:37.368Z,13.80
2023-01-10T22:27:04.941Z,9.82
2023-01-10T22:29:31.332Z,13.57
2023-01-10T22:31:57.908Z,10.60
2023-01-10T22:34:24.453Z,5.93
2023-01-10T22:36:51.074Z,4.85
2023-01-10T22:39:17.568Z,8.25
2023-01-10T22:41:43.980Z,13.00
2023-01-10T22:44:18.200Z,15.45
2023-01-10T22:46:45.271Z,9.07
2023-01-10T22:49:11.883Z,11.25
2023-01-10T22:51:38.308Z,24.83
2023-01-10T22:54:05.022Z,11.88
2023-01-10T22:56:31.628Z,6.45
2023-01-10T22:58:58.029Z,10.05
2023-01-10T23:01:24.992Z,11.80
2023-01-10T23:03:51.834Z,9.35
2023-01-10T23:06:18.458Z,12.85
2023-01-10T23:08:45.609Z,10.80
2023-01-10T23:11:15.849Z,7.53
2023-01-10T23:13:42.386Z,13.88
2023-01-10T23:16:12.832Z,6.60
2023-01-10T23:18:39.368Z,14.65
2023-01-10T23:21:06.317Z,7.05
2023-01-10T23:23:32.797Z,12.68
2023-01-10T23:26:05.129Z,9.35
2023-01-10T23:28:51.405Z,8.27
2023-01-10T23:31:20.413Z,11.90
2023-01-10T23:33:47.574Z,14.43
2023-01-10T23:36:14.497Z,11.38
2023-01-10T23:38:41.013Z,12.05
2023-01-10T23:41:07.640Z,13.70
2023-01-10T23:43:34.102Z,6.63
2023-01-10T23:46:02.169Z,9.13
2023-01-10T23:48:29.503Z,11.93
2023-01-10T23:50:56.107Z,8.10
2023-01-10T23:53:23.014Z,10.60
2023-01-10T23:55:49.449Z,10.25
2023-01-10T23:58:16.845Z,10.23
